Abbott, New Mexico
Current Conditions -  °F | °C
As of 8:53 AM on Thursday 18 Dec 2014 (Local Time) from KRTN Reporting Station
Clear Clear  
Wind Chill: 24°   Ceiling: Unl
Heat Index: 29°   Visibility: 10mi
Dew Point: 23°   Wind: 5mph
Humidity: 78%   Direction: 80°E
Pressure: 30.06"   Gusts: NA
Location:  36.3883°N, 104.381°W
Report Text: KRTN 181553Z AUTO 08004KT 10SM CLR M02/M05 A3006 RMK AO2 SLP192 T10171050
Loading
Personal Weather Stations






























Interactive Weather Map New forecast layout! Learn more

10-Day Weather Forecast

Advertisements
Track Severe Weather on mobile